Time;durP1;ratioP1;P1;durP2;ratioP2;P2;SDS_P1;SDS_P2;PMS_P1;PMS_P2;Temp;Humidity;BMP_temperature;BMP_pressure;BME280_temperature;BME280_humidity;BME280_pressure;Samples;Min_cycle;Max_cycle;Signal;HPM_P1;HPM_P2
2024/03/19 00:00:37;;;;;;;22.80;14.13;;;;;;;;;;5075042;28;20044;-58
2024/03/19 00:03:02;;;;;;;23.98;13.70;;;;;;;;;;5074886;28;20052;-55
2024/03/19 00:05:28;;;;;;;22.88;13.80;;;;;;;;;;5074870;28;20401;-59
2024/03/19 00:07:53;;;;;;;20.25;12.02;;;;;;;;;;5074820;28;20020;-59
2024/03/19 00:10:18;;;;;;;23.55;12.45;;;;;;;;;;5074789;28;20081;-57
2024/03/19 00:12:43;;;;;;;18.30;12.80;;;;;;;;;;5074727;28;20024;-55
2024/03/19 00:15:09;;;;;;;21.55;12.95;;;;;;;;;;5074603;28;20020;-58
2024/03/19 00:17:34;;;;;;;21.23;11.80;;;;;;;;;;5074712;28;20016;-58
2024/03/19 00:19:59;;;;;;;20.35;12.02;;;;;;;;;;5074897;28;20035;-58
2024/03/19 00:22:25;;;;;;;21.95;11.68;;;;;;;;;;5074558;28;20012;-57
2024/03/19 00:24:50;;;;;;;23.02;11.35;;;;;;;;;;5057009;28;20101;-56
2024/03/19 00:27:15;;;;;;;17.27;10.13;;;;;;;;;;5074483;28;20016;-59
2024/03/19 00:29:40;;;;;;;22.75;12.32;;;;;;;;;;5074473;28;20067;-59
2024/03/19 00:32:06;;;;;;;20.00;11.23;;;;;;;;;;5074471;28;20055;-59
2024/03/19 00:34:31;;;;;;;21.25;12.02;;;;;;;;;;5074719;28;20447;-59
2024/03/19 00:36:56;;;;;;;19.08;11.90;;;;;;;;;;5074377;28;20032;-58
2024/03/19 00:39:22;;;;;;;26.60;13.52;;;;;;;;;;5056769;28;20306;-57
2024/03/19 00:41:47;;;;;;;18.38;11.77;;;;;;;;;;5074693;28;20021;-58
2024/03/19 00:44:13;;;;;;;19.65;11.90;;;;;;;;;;5074647;28;20016;-57
2024/03/19 00:46:38;;;;;;;20.80;11.77;;;;;;;;;;5074616;28;20024;-56
2024/03/19 00:49:04;;;;;;;22.33;11.52;;;;;;;;;;5074290;28;20017;-59
2024/03/19 00:51:29;;;;;;;15.88;10.57;;;;;;;;;;5074129;28;20357;-58
2024/03/19 00:53:54;;;;;;;23.10;12.20;;;;;;;;;;5074212;28;20407;-59
2024/03/19 00:56:19;;;;;;;19.00;11.40;;;;;;;;;;5074140;28;20028;-58
2024/03/19 00:58:46;;;;;;;23.20;11.57;;;;;;;;;;5074084;28;20029;-57
2024/03/19 01:01:13;;;;;;;20.10;11.02;;;;;;;;;;5074024;28;20074;-58
2024/03/19 01:03:38;;;;;;;21.75;11.70;;;;;;;;;;5074249;28;20392;-58
2024/03/19 01:06:04;;;;;;;23.17;11.90;;;;;;;;;;5074034;28;20158;-57
2024/03/19 01:08:29;;;;;;;20.73;11.10;;;;;;;;;;5074216;28;20048;-58
2024/03/19 01:10:59;;;;;;;18.92;10.45;;;;;;;;;;5074038;28;20081;-55
2024/03/19 01:13:24;;;;;;;18.08;12.00;;;;;;;;;;5074082;28;20043;-56
2024/03/19 01:15:49;;;;;;;18.45;10.90;;;;;;;;;;5074167;28;20029;-58
2024/03/19 01:18:14;;;;;;;19.65;11.10;;;;;;;;;;5073963;28;20016;-59
2024/03/19 01:20:39;;;;;;;19.25;10.15;;;;;;;;;;5073981;28;20099;-59
2024/03/19 01:23:05;;;;;;;21.25;12.15;;;;;;;;;;5073979;28;20048;-59
2024/03/19 01:25:31;;;;;;;19.35;10.35;;;;;;;;;;5056148;28;20036;-59
2024/03/19 01:27:56;;;;;;;27.63;11.35;;;;;;;;;;5073981;28;20453;-58
2024/03/19 01:30:21;;;;;;;18.83;11.02;;;;;;;;;;5073870;28;20077;-59
2024/03/19 01:32:50;;;;;;;17.40;10.05;;;;;;;;;;5073961;28;20078;-59
2024/03/19 01:35:15;;;;;;;17.85;10.52;;;;;;;;;;5073760;28;20035;-59
2024/03/19 01:37:40;;;;;;;18.80;10.73;;;;;;;;;;5074065;28;20024;-59
2024/03/19 01:40:07;;;;;;;21.13;11.68;;;;;;;;;;5056052;28;20017;-59
2024/03/19 01:42:32;;;;;;;19.77;9.85;;;;;;;;;;5073763;28;20017;-56
2024/03/19 01:45:06;;;;;;;18.08;10.38;;;;;;;;;;5073782;28;20021;-56
2024/03/19 01:47:34;;;;;;;20.77;10.52;;;;;;;;;;5073837;28;20035;-57
2024/03/19 01:50:00;;;;;;;21.75;10.25;;;;;;;;;;5073978;28;20350;-57
2024/03/19 01:52:25;;;;;;;18.48;10.55;;;;;;;;;;5073626;28;20016;-57
2024/03/19 01:54:50;;;;;;;15.38;9.60;;;;;;;;;;5073601;28;20027;-58
2024/03/19 01:57:16;;;;;;;16.15;9.80;;;;;;;;;;5073676;28;20009;-57
2024/03/19 01:59:41;;;;;;;18.52;9.90;;;;;;;;;;5073824;28;20104;-57
2024/03/19 02:02:06;;;;;;;19.85;10.05;;;;;;;;;;5073546;28;20063;-57
2024/03/19 02:04:31;;;;;;;17.17;9.63;;;;;;;;;;5073623;28;20063;-57
2024/03/19 02:06:56;;;;;;;22.70;10.15;;;;;;;;;;5073415;28;20067;-56
2024/03/19 02:09:22;;;;;;;22.40;9.55;;;;;;;;;;5074216;28;20021;-58
2024/03/19 02:11:47;;;;;;;20.83;9.88;;;;;;;;;;5073475;28;20081;-58
2024/03/19 02:14:12;;;;;;;18.38;10.15;;;;;;;;;;5073416;28;20016;-58
2024/03/19 02:16:38;;;;;;;17.67;8.88;;;;;;;;;;5073401;28;20024;-57
2024/03/19 02:19:04;;;;;;;16.70;10.15;;;;;;;;;;5074741;28;20443;-57
2024/03/19 02:21:30;;;;;;;16.25;8.95;;;;;;;;;;5076969;28;20102;-57
2024/03/19 02:23:56;;;;;;;14.82;9.05;;;;;;;;;;5077147;28;20017;-56
2024/03/19 02:26:21;;;;;;;17.50;9.13;;;;;;;;;;5076884;28;20024;-58
2024/03/19 02:28:47;;;;;;;19.33;9.38;;;;;;;;;;5077121;28;20036;-58
2024/03/19 02:31:12;;;;;;;17.00;9.57;;;;;;;;;;5076768;28;20448;-57
2024/03/19 02:33:37;;;;;;;15.73;8.63;;;;;;;;;;5076773;28;20013;-58
2024/03/19 02:36:03;;;;;;;17.75;8.80;;;;;;;;;;5076919;28;20071;-57
2024/03/19 02:38:28;;;;;;;16.13;9.20;;;;;;;;;;5076938;28;20017;-57
2024/03/19 02:40:53;;;;;;;13.80;8.35;;;;;;;;;;5076681;28;20100;-56
2024/03/19 02:43:19;;;;;;;16.63;8.95;;;;;;;;;;5076574;28;20020;-57
2024/03/19 02:45:44;;;;;;;15.18;9.60;;;;;;;;;;5076551;28;20108;-58
2024/03/19 02:48:12;;;;;;;15.60;9.18;;;;;;;;;;5058876;28;20031;-57
2024/03/19 02:50:37;;;;;;;14.85;8.38;;;;;;;;;;5076718;28;20058;-58
2024/03/19 02:53:02;;;;;;;20.77;9.32;;;;;;;;;;5076351;28;20031;-58
2024/03/19 02:55:28;;;;;;;15.48;8.35;;;;;;;;;;5076320;28;20020;-58
2024/03/19 02:57:53;;;;;;;17.30;8.80;;;;;;;;;;5076325;28;20095;-55
2024/03/19 03:00:18;;;;;;;19.17;9.32;;;;;;;;;;5077029;28;20478;-58
2024/03/19 03:02:43;;;;;;;13.90;8.25;;;;;;;;;;5108557;22;20143;-85
2024/03/19 03:05:08;;;;;;;14.45;8.02;;;;;;;;;;5097133;28;20123;-85
2024/03/19 03:07:34;;;;;;;16.48;9.00;;;;;;;;;;5079674;28;20016;-85
2024/03/19 03:09:59;;;;;;;18.35;9.27;;;;;;;;;;5079130;28;20024;-85
2024/03/19 03:12:24;;;;;;;18.38;8.65;;;;;;;;;;5095881;28;20048;-85
2024/03/19 03:14:49;;;;;;;15.55;9.20;;;;;;;;;;5078775;28;20020;-85
2024/03/19 03:17:15;;;;;;;14.63;8.82;;;;;;;;;;5096695;28;20024;-85
2024/03/19 03:19:40;;;;;;;17.73;9.65;;;;;;;;;;5097133;28;20092;-85
2024/03/19 03:22:05;;;;;;;18.05;9.57;;;;;;;;;;5096738;28;20465;-85
2024/03/19 03:24:31;;;;;;;18.23;9.15;;;;;;;;;;5079431;28;20114;-85
2024/03/19 03:26:56;;;;;;;17.70;8.68;;;;;;;;;;5096637;28;20087;-85
2024/03/19 03:29:21;;;;;;;15.23;8.82;;;;;;;;;;5078586;28;20024;-85
2024/03/19 03:31:47;;;;;;;19.52;9.05;;;;;;;;;;5079358;28;20031;-85
2024/03/19 03:34:12;;;;;;;16.20;8.85;;;;;;;;;;5096820;28;20074;-85
2024/03/19 03:36:37;;;;;;;14.13;8.48;;;;;;;;;;5078508;28;20024;-85
2024/03/19 03:39:04;;;;;;;17.45;9.95;;;;;;;;;;5096177;28;20090;-85
2024/03/19 03:41:30;;;;;;;14.43;8.40;;;;;;;;;;5096719;28;20047;-85
2024/03/19 03:43:55;;;;;;;16.02;8.50;;;;;;;;;;5096311;28;20047;-85
2024/03/19 03:46:20;;;;;;;15.50;9.00;;;;;;;;;;5079293;28;20054;-85
2024/03/19 03:48:45;;;;;;;14.43;8.48;;;;;;;;;;5096380;28;20024;-85
2024/03/19 03:51:10;;;;;;;19.75;8.52;;;;;;;;;;5096130;28;20016;-85
2024/03/19 03:53:36;;;;;;;15.02;9.25;;;;;;;;;;5096027;28;20016;-85
2024/03/19 03:56:01;;;;;;;19.80;8.82;;;;;;;;;;5078090;28;20016;-85
2024/03/19 03:58:26;;;;;;;19.80;9.10;;;;;;;;;;5095679;28;20027;-85
2024/03/19 04:00:51;;;;;;;16.13;8.27;;;;;;;;;;5108240;22;20006;-58
2024/03/19 04:03:19;;;;;;;17.95;9.07;;;;;;;;;;5075024;28;20360;-55
2024/03/19 04:05:48;;;;;;;18.08;9.07;;;;;;;;;;5074915;28;20078;-57
2024/03/19 04:08:14;;;;;;;18.77;9.50;;;;;;;;;;5074915;28;20089;-58
2024/03/19 04:10:40;;;;;;;15.70;9.13;;;;;;;;;;5074852;28;20028;-57
2024/03/19 04:13:05;;;;;;;19.73;9.23;;;;;;;;;;5074893;28;20093;-54
2024/03/19 04:15:31;;;;;;;15.05;8.90;;;;;;;;;;5075031;28;20028;-57
2024/03/19 04:17:56;;;;;;;17.83;8.55;;;;;;;;;;5074783;28;20108;-53
2024/03/19 04:20:21;;;;;;;16.73;8.75;;;;;;;;;;5074731;28;20479;-57
2024/03/19 04:22:46;;;;;;;15.05;8.50;;;;;;;;;;5074730;28;20017;-57
2024/03/19 04:25:11;;;;;;;18.05;9.60;;;;;;;;;;5074625;28;20051;-54
2024/03/19 04:27:37;;;;;;;16.20;8.43;;;;;;;;;;5074589;28;20024;-53
2024/03/19 04:30:03;;;;;;;18.40;9.48;;;;;;;;;;5074582;28;20455;-57
2024/03/19 04:32:28;;;;;;;15.10;8.88;;;;;;;;;;5075055;28;20059;-57
2024/03/19 04:34:53;;;;;;;15.80;8.65;;;;;;;;;;5074986;28;20093;-55
2024/03/19 04:37:18;;;;;;;18.45;9.75;;;;;;;;;;5075096;28;20399;-53
2024/03/19 04:39:43;;;;;;;17.02;9.02;;;;;;;;;;5075503;28;20021;-57
2024/03/19 04:42:19;;;;;;;18.70;9.23;;;;;;;;;;5057780;28;20112;-55
2024/03/19 04:44:44;;;;;;;19.65;9.55;;;;;;;;;;5075275;28;20353;-57
2024/03/19 04:47:12;;;;;;;19.50;9.95;;;;;;;;;;5074922;28;20020;-54
2024/03/19 04:49:37;;;;;;;18.65;9.63;;;;;;;;;;5074919;28;20024;-55
2024/03/19 04:52:02;;;;;;;16.48;8.95;;;;;;;;;;5075154;28;20076;-56
2024/03/19 04:54:28;;;;;;;16.15;9.32;;;;;;;;;;5074868;28;20023;-56
2024/03/19 04:56:54;;;;;;;15.18;8.77;;;;;;;;;;5074851;28;20024;-54
2024/03/19 04:59:20;;;;;;;14.23;8.90;;;;;;;;;;5074811;28;20025;-57
2024/03/19 05:01:45;;;;;;;17.25;8.55;;;;;;;;;;5075022;28;20093;-57
2024/03/19 05:04:11;;;;;;;14.75;8.73;;;;;;;;;;5074987;28;20028;-57
2024/03/19 05:06:38;;;;;;;16.80;9.15;;;;;;;;;;5075481;28;20337;-55
2024/03/19 05:09:06;;;;;;;19.05;9.00;;;;;;;;;;5074690;28;20024;-57
2024/03/19 05:11:32;;;;;;;17.50;9.68;;;;;;;;;;5074895;28;20157;-56
2024/03/19 05:13:59;;;;;;;17.63;9.20;;;;;;;;;;5074694;28;20464;-57
2024/03/19 05:16:26;;;;;;;17.33;9.27;;;;;;;;;;5074566;28;20028;-56
2024/03/19 05:18:52;;;;;;;19.08;8.73;;;;;;;;;;5074595;28;20017;-58
2024/03/19 05:21:19;;;;;;;20.60;9.15;;;;;;;;;;5074602;28;20021;-57
2024/03/19 05:23:46;;;;;;;17.92;9.45;;;;;;;;;;5074553;28;20046;-55
2024/03/19 05:26:13;;;;;;;16.92;9.07;;;;;;;;;;5073536;28;20047;-57
2024/03/19 05:28:39;;;;;;;16.88;9.05;;;;;;;;;;5074583;28;20025;-56
2024/03/19 05:31:19;;;;;;;16.95;9.23;;;;;;;;;;5074468;28;20082;-57
2024/03/19 05:33:45;;;;;;;16.60;8.77;;;;;;;;;;5057208;28;20029;-56
2024/03/19 05:36:12;;;;;;;15.55;8.95;;;;;;;;;;5074442;28;20020;-57
2024/03/19 05:38:37;;;;;;;16.08;9.27;;;;;;;;;;5074754;28;20421;-57
2024/03/19 05:41:02;;;;;;;19.02;9.60;;;;;;;;;;5074436;28;20078;-56
2024/03/19 05:43:27;;;;;;;18.10;9.82;;;;;;;;;;5074481;28;20024;-58
2024/03/19 05:45:55;;;;;;;15.82;9.82;;;;;;;;;;5074609;28;20485;-54
2024/03/19 05:48:20;;;;;;;15.43;9.30;;;;;;;;;;5074385;28;20099;-54
2024/03/19 05:50:46;;;;;;;16.17;10.38;;;;;;;;;;5074695;28;20405;-57
2024/03/19 05:53:12;;;;;;;15.25;9.20;;;;;;;;;;5074416;28;20082;-54
2024/03/19 05:55:37;;;;;;;17.65;9.73;;;;;;;;;;5077997;28;20039;-55
2024/03/19 05:58:02;;;;;;;16.52;10.05;;;;;;;;;;5078056;28;20330;-53
2024/03/19 06:00:28;;;;;;;20.27;10.75;;;;;;;;;;5078008;28;20449;-55
2024/03/19 06:02:53;;;;;;;20.05;9.93;;;;;;;;;;5077934;28;20109;-57
2024/03/19 06:05:18;;;;;;;17.95;9.73;;;;;;;;;;5077865;28;20048;-57
2024/03/19 06:07:44;;;;;;;17.13;9.00;;;;;;;;;;5077951;28;20020;-56
2024/03/19 06:10:09;;;;;;;16.40;9.68;;;;;;;;;;5077819;28;20064;-54
2024/03/19 06:12:34;;;;;;;15.50;9.68;;;;;;;;;;5077814;28;20048;-53
2024/03/19 06:15:00;;;;;;;19.15;10.45;;;;;;;;;;5077860;28;20028;-58
2024/03/19 06:17:26;;;;;;;16.42;9.52;;;;;;;;;;5077973;28;20077;-57
2024/03/19 06:19:52;;;;;;;21.50;10.20;;;;;;;;;;5077581;28;20020;-58
2024/03/19 06:22:17;;;;;;;17.95;9.55;;;;;;;;;;5077472;28;20024;-57
2024/03/19 06:24:42;;;;;;;21.90;9.40;;;;;;;;;;5076690;28;20024;-57
2024/03/19 06:27:07;;;;;;;20.85;9.90;;;;;;;;;;5078353;28;20086;-54
2024/03/19 06:29:33;;;;;;;18.77;9.35;;;;;;;;;;5078120;28;20017;-56
2024/03/19 06:31:59;;;;;;;16.65;9.13;;;;;;;;;;5078070;28;20097;-58
2024/03/19 06:34:24;;;;;;;17.90;10.25;;;;;;;;;;5077451;28;20022;-58
2024/03/19 06:36:52;;;;;;;18.50;9.73;;;;;;;;;;5077670;28;20029;-57
2024/03/19 06:39:17;;;;;;;23.42;9.43;;;;;;;;;;5077622;28;20158;-56
2024/03/19 06:41:42;;;;;;;14.57;9.05;;;;;;;;;;5077345;28;20058;-56
2024/03/19 06:44:08;;;;;;;18.80;9.45;;;;;;;;;;5077298;28;20095;-57
2024/03/19 06:46:33;;;;;;;17.70;9.30;;;;;;;;;;5077849;28;20031;-54
2024/03/19 06:48:58;;;;;;;19.52;10.20;;;;;;;;;;5077531;28;20024;-55
2024/03/19 06:51:23;;;;;;;18.05;9.85;;;;;;;;;;5077224;28;20341;-55
2024/03/19 06:53:49;;;;;;;18.25;9.68;;;;;;;;;;5077139;28;20047;-57
2024/03/19 06:56:14;;;;;;;18.58;9.52;;;;;;;;;;5077015;28;20407;-57
2024/03/19 06:58:42;;;;;;;16.73;9.57;;;;;;;;;;5075924;28;20020;-56
2024/03/19 07:01:09;;;;;;;16.60;9.65;;;;;;;;;;5077096;28;20073;-57
2024/03/19 07:03:34;;;;;;;19.73;10.13;;;;;;;;;;5059411;28;20334;-54
2024/03/19 07:05:59;;;;;;;20.63;9.48;;;;;;;;;;5076442;28;20031;-58
2024/03/19 07:08:24;;;;;;;17.67;9.02;;;;;;;;;;5076825;28;20349;-54
2024/03/19 07:10:50;;;;;;;16.67;9.20;;;;;;;;;;5076821;28;20081;-55
2024/03/19 07:13:15;;;;;;;14.00;8.23;;;;;;;;;;5077119;28;20052;-58
2024/03/19 07:15:40;;;;;;;17.92;9.23;;;;;;;;;;5060281;28;20020;-55
2024/03/19 07:18:08;;;;;;;19.65;9.65;;;;;;;;;;5077339;28;20030;-55
2024/03/19 07:20:34;;;;;;;16.10;8.63;;;;;;;;;;5078378;28;20089;-57
2024/03/19 07:22:59;;;;;;;18.83;9.85;;;;;;;;;;5077405;28;20021;-57
2024/03/19 07:25:24;;;;;;;17.40;8.75;;;;;;;;;;5077225;28;20098;-57
2024/03/19 07:27:49;;;;;;;16.38;8.50;;;;;;;;;;5077181;28;20021;-56
2024/03/19 07:30:15;;;;;;;20.52;8.80;;;;;;;;;;5076597;28;20024;-54
2024/03/19 07:32:42;;;;;;;20.65;9.45;;;;;;;;;;5076562;28;20028;-57
2024/03/19 07:35:08;;;;;;;15.95;8.98;;;;;;;;;;5076276;28;20351;-57
2024/03/19 07:37:37;;;;;;;17.35;9.07;;;;;;;;;;5076242;28;20021;-58
2024/03/19 07:40:09;;;;;;;17.30;7.85;;;;;;;;;;5076123;28;20024;-58
2024/03/19 07:42:34;;;;;;;16.98;8.68;;;;;;;;;;5076063;28;20027;-57
2024/03/19 07:44:59;;;;;;;18.25;8.30;;;;;;;;;;5076302;28;20337;-57
2024/03/19 07:47:25;;;;;;;17.85;8.55;;;;;;;;;;5075981;28;20023;-58
2024/03/19 07:49:50;;;;;;;16.10;8.63;;;;;;;;;;5075951;28;20021;-57
2024/03/19 07:52:15;;;;;;;17.13;9.30;;;;;;;;;;5075925;28;20020;-57
2024/03/19 07:54:41;;;;;;;20.05;8.35;;;;;;;;;;5075897;28;20021;-58
2024/03/19 07:57:06;;;;;;;15.57;8.23;;;;;;;;;;5075664;28;20025;-55
2024/03/19 07:59:32;;;;;;;21.38;9.38;;;;;;;;;;5074461;28;20437;-58
2024/03/19 08:01:58;;;;;;;15.95;9.20;;;;;;;;;;5075645;28;20349;-57
2024/03/19 08:04:24;;;;;;;16.00;9.13;;;;;;;;;;5075413;28;20120;-57
2024/03/19 08:06:50;;;;;;;18.30;10.18;;;;;;;;;;5075719;28;20092;-57
2024/03/19 08:09:17;;;;;;;16.42;9.10;;;;;;;;;;5075508;28;20099;-56
2024/03/19 08:11:44;;;;;;;19.38;9.35;;;;;;;;;;5057998;28;20033;-57
2024/03/19 08:14:10;;;;;;;19.08;8.75;;;;;;;;;;5075654;28;20388;-56
2024/03/19 08:16:36;;;;;;;17.77;8.85;;;;;;;;;;5075071;28;20141;-55
2024/03/19 08:19:01;;;;;;;21.08;10.27;;;;;;;;;;5058041;28;20052;-58
2024/03/19 08:21:27;;;;;;;19.02;8.73;;;;;;;;;;5075386;28;20082;-55
2024/03/19 08:23:54;;;;;;;20.55;8.23;;;;;;;;;;5075575;28;20518;-56
2024/03/19 08:26:20;;;;;;;14.63;8.23;;;;;;;;;;5076007;28;20459;-54
2024/03/19 08:28:46;;;;;;;19.42;8.88;;;;;;;;;;5075311;28;20095;-55
2024/03/19 08:31:13;;;;;;;22.00;9.88;;;;;;;;;;5075169;28;20044;-57
2024/03/19 08:33:40;;;;;;;15.38;7.80;;;;;;;;;;5075169;28;20457;-57
2024/03/19 08:36:06;;;;;;;16.40;7.53;;;;;;;;;;5075050;28;20031;-55
2024/03/19 08:38:34;;;;;;;14.63;8.35;;;;;;;;;;5075080;28;20016;-55
2024/03/19 08:41:00;;;;;;;15.85;8.15;;;;;;;;;;5075117;28;20050;-54
2024/03/19 08:43:27;;;;;;;17.73;8.05;;;;;;;;;;5058231;28;20082;-54
2024/03/19 08:45:52;;;;;;;16.70;8.32;;;;;;;;;;5075034;28;20349;-55
2024/03/19 08:48:19;;;;;;;17.70;8.80;;;;;;;;;;5074961;28;20026;-57
2024/03/19 08:50:45;;;;;;;15.23;8.15;;;;;;;;;;5075224;28;20341;-56
2024/03/19 08:53:12;;;;;;;15.10;8.10;;;;;;;;;;5075459;28;20017;-54
2024/03/19 08:55:38;;;;;;;19.95;9.00;;;;;;;;;;5075419;28;20406;-55
2024/03/19 08:58:05;;;;;;;19.13;8.63;;;;;;;;;;5074216;28;20349;-57
2024/03/19 09:00:31;;;;;;;16.15;8.23;;;;;;;;;;5074134;28;20031;-57
2024/03/19 09:02:58;;;;;;;15.60;8.25;;;;;;;;;;5074869;28;20013;-54
2024/03/19 09:05:25;;;;;;;16.65;8.73;;;;;;;;;;5073859;28;20081;-57
2024/03/19 09:07:51;;;;;;;16.05;8.02;;;;;;;;;;5074853;28;20051;-56
2024/03/19 09:10:18;;;;;;;17.30;7.90;;;;;;;;;;5074726;28;20515;-54
2024/03/19 09:12:45;;;;;;;16.15;7.75;;;;;;;;;;5074976;28;20070;-57
2024/03/19 09:15:12;;;;;;;18.67;8.57;;;;;;;;;;5074939;28;20024;-54
2024/03/19 09:17:42;;;;;;;15.52;7.60;;;;;;;;;;5075005;28;20081;-57
2024/03/19 09:20:10;;;;;;;18.15;7.63;;;;;;;;;;5075009;28;20009;-54
2024/03/19 09:22:36;;;;;;;15.45;7.65;;;;;;;;;;5074734;28;20123;-54
2024/03/19 09:25:02;;;;;;;17.85;8.18;;;;;;;;;;5074513;28;20385;-54
2024/03/19 09:27:29;;;;;;;19.77;8.18;;;;;;;;;;5075355;28;20034;-55
2024/03/19 09:29:58;;;;;;;14.20;7.03;;;;;;;;;;5078657;28;20023;-54
2024/03/19 09:32:24;;;;;;;12.35;6.53;;;;;;;;;;5078564;28;20017;-54
2024/03/19 09:34:51;;;;;;;16.23;6.80;;;;;;;;;;5078495;28;20044;-54
2024/03/19 09:37:16;;;;;;;15.43;6.97;;;;;;;;;;5078542;28;20311;-54
2024/03/19 09:39:43;;;;;;;11.95;6.60;;;;;;;;;;5078802;28;20016;-53
2024/03/19 09:42:13;;;;;;;15.32;6.95;;;;;;;;;;5078420;28;20008;-57
2024/03/19 09:44:42;;;;;;;16.40;6.45;;;;;;;;;;5078447;28;20087;-56
2024/03/19 09:47:09;;;;;;;12.77;5.93;;;;;;;;;;5078335;28;20029;-54
2024/03/19 09:49:35;;;;;;;18.55;7.25;;;;;;;;;;5078217;28;20017;-57
2024/03/19 09:52:03;;;;;;;13.40;6.40;;;;;;;;;;5078264;28;20070;-57
2024/03/19 09:54:30;;;;;;;20.42;6.70;;;;;;;;;;5078635;28;20031;-54
2024/03/19 09:56:57;;;;;;;16.83;6.38;;;;;;;;;;5077801;28;20021;-54
2024/03/19 09:59:24;;;;;;;15.13;6.03;;;;;;;;;;5077008;28;20020;-57
2024/03/19 10:01:50;;;;;;;14.70;5.75;;;;;;;;;;5078439;28;20452;-58
2024/03/19 10:04:17;;;;;;;15.00;6.85;;;;;;;;;;5060470;28;20112;-56
2024/03/19 10:06:44;;;;;;;15.45;6.00;;;;;;;;;;5078477;28;20045;-56
2024/03/19 10:09:11;;;;;;;18.38;5.80;;;;;;;;;;5078143;28;20055;-57
2024/03/19 10:11:38;;;;;;;16.73;5.95;;;;;;;;;;5077849;28;20023;-54
2024/03/19 10:14:04;;;;;;;14.70;5.88;;;;;;;;;;5078117;28;20100;-58
2024/03/19 10:16:31;;;;;;;13.07;5.63;;;;;;;;;;5077668;28;20020;-54
2024/03/19 10:18:57;;;;;;;14.68;5.88;;;;;;;;;;5077773;28;20018;-54
2024/03/19 10:21:26;;;;;;;15.13;5.78;;;;;;;;;;5077678;28;20008;-54
2024/03/19 10:23:52;;;;;;;16.63;6.25;;;;;;;;;;5077516;28;20034;-55
2024/03/19 10:26:20;;;;;;;17.80;5.78;;;;;;;;;;5077437;28;20029;-54
2024/03/19 10:28:47;;;;;;;13.80;5.60;;;;;;;;;;5077862;28;20390;-56
2024/03/19 10:31:15;;;;;;;13.07;5.68;;;;;;;;;;5077460;28;20020;-56
2024/03/19 10:33:43;;;;;;;12.13;5.35;;;;;;;;;;5077771;28;20362;-54
2024/03/19 10:36:20;;;;;;;13.15;5.10;;;;;;;;;;5077367;28;20043;-57
2024/03/19 10:38:47;;;;;;;14.00;5.03;;;;;;;;;;5077116;28;20019;-56
2024/03/19 10:41:14;;;;;;;13.80;4.85;;;;;;;;;;5076912;28;20084;-55
2024/03/19 10:43:41;;;;;;;13.05;5.55;;;;;;;;;;5077561;28;20099;-56
2024/03/19 10:46:08;;;;;;;10.32;4.75;;;;;;;;;;5077260;28;20104;-55
2024/03/19 10:48:36;;;;;;;12.65;4.30;;;;;;;;;;5077208;28;20035;-56
2024/03/19 10:51:02;;;;;;;13.93;4.72;;;;;;;;;;5077153;28;20095;-57
2024/03/19 10:53:29;;;;;;;13.95;4.82;;;;;;;;;;5077117;28;20059;-55
2024/03/19 10:55:59;;;;;;;10.90;4.68;;;;;;;;;;5076929;28;20024;-57
2024/03/19 10:58:26;;;;;;;11.95;4.70;;;;;;;;;;5058822;28;20024;-57
2024/03/19 11:00:53;;;;;;;13.77;4.65;;;;;;;;;;5077223;28;20021;-56
2024/03/19 11:03:20;;;;;;;18.10;6.00;;;;;;;;;;5076934;28;20345;-56
2024/03/19 11:05:48;;;;;;;11.63;5.00;;;;;;;;;;5077003;28;20055;-55
2024/03/19 11:08:15;;;;;;;12.73;5.60;;;;;;;;;;5076932;28;20033;-57
2024/03/19 11:10:43;;;;;;;12.43;5.35;;;;;;;;;;5076761;28;20028;-56
2024/03/19 11:13:11;;;;;;;11.38;4.60;;;;;;;;;;5076713;28;20024;-58
2024/03/19 11:15:36;;;;;;;12.15;4.63;;;;;;;;;;5076540;28;20024;-56
2024/03/19 11:18:04;;;;;;;12.77;4.90;;;;;;;;;;5059216;28;20445;-56
2024/03/19 11:20:34;;;;;;;13.20;4.20;;;;;;;;;;5059284;28;20504;-55
2024/03/19 11:23:02;;;;;;;8.30;3.83;;;;;;;;;;5058928;28;20032;-58
2024/03/19 11:25:30;;;;;;;10.63;3.53;;;;;;;;;;5076394;28;20263;-59
2024/03/19 11:27:56;;;;;;;12.88;3.88;;;;;;;;;;5042425;28;20476;-54
2024/03/19 11:30:22;;;;;;;11.98;3.88;;;;;;;;;;5058774;28;20028;-56
2024/03/19 11:32:52;;;;;;;11.10;5.15;;;;;;;;;;5076362;28;20434;-58
2024/03/19 11:35:19;;;;;;;10.47;3.93;;;;;;;;;;5076196;28;20020;-57
2024/03/19 11:37:49;;;;;;;10.70;4.00;;;;;;;;;;5076276;28;20020;-56
2024/03/19 11:40:18;;;;;;;9.57;3.58;;;;;;;;;;5076185;28;20039;-54
2024/03/19 11:42:44;;;;;;;8.88;3.80;;;;;;;;;;5076327;28;20460;-55
2024/03/19 11:45:13;;;;;;;9.60;3.88;;;;;;;;;;5076107;28;20063;-56
2024/03/19 11:47:40;;;;;;;11.57;3.80;;;;;;;;;;5075996;28;20013;-56
2024/03/19 11:50:06;;;;;;;13.60;3.85;;;;;;;;;;5075958;28;20024;-56
2024/03/19 11:52:34;;;;;;;13.00;3.95;;;;;;;;;;5075924;28;20087;-57
2024/03/19 11:55:02;;;;;;;9.77;4.30;;;;;;;;;;5075745;28;20020;-56
2024/03/19 11:57:29;;;;;;;11.10;3.45;;;;;;;;;;5074655;28;20472;-56
2024/03/19 11:59:55;;;;;;;11.15;3.60;;;;;;;;;;5075638;28;20020;-57
2024/03/19 12:02:21;;;;;;;8.48;2.53;;;;;;;;;;5075776;28;20017;-56
2024/03/19 12:04:48;;;;;;;7.20;2.88;;;;;;;;;;5075685;28;20019;-57
2024/03/19 12:07:13;;;;;;;8.80;3.03;;;;;;;;;;5075888;28;20020;-57
2024/03/19 12:09:40;;;;;;;9.20;2.70;;;;;;;;;;5075646;28;20483;-55
2024/03/19 12:12:11;;;;;;;8.13;2.78;;;;;;;;;;5075481;28;20438;-57
2024/03/19 12:14:38;;;;;;;10.32;3.42;;;;;;;;;;5075686;28;20036;-58
2024/03/19 12:17:04;;;;;;;8.40;3.28;;;;;;;;;;5075553;28;20094;-56
2024/03/19 12:19:31;;;;;;;7.25;3.00;;;;;;;;;;5076020;28;20017;-58
2024/03/19 12:21:57;;;;;;;7.35;3.10;;;;;;;;;;5075479;28;20100;-58
2024/03/19 12:24:24;;;;;;;10.82;3.05;;;;;;;;;;5075366;28;20015;-57
2024/03/19 12:26:50;;;;;;;7.90;2.80;;;;;;;;;;5075174;28;20021;-58
2024/03/19 12:29:21;;;;;;;9.70;2.90;;;;;;;;;;5075276;28;20029;-54
2024/03/19 12:31:59;;;;;;;8.90;2.95;;;;;;;;;;5075286;28;20024;-56
2024/03/19 12:35:13;;;;;;;8.43;2.58;;;;;;;;;;5075161;28;20029;-57
2024/03/19 12:37:18;;;;;;;7.50;2.70;;;;;;;;;;5069526;28;20067;-58
2024/03/19 12:39:46;;;;;;;10.13;2.78;;;;;;;;;;5075125;28;20023;-56
2024/03/19 12:42:15;;;;;;;6.63;2.55;;;;;;;;;;5075093;28;20023;-58
2024/03/19 12:44:44;;;;;;;6.90;2.65;;;;;;;;;;5075027;28;20024;-56
2024/03/19 12:47:12;;;;;;;7.30;2.97;;;;;;;;;;5075038;28;20013;-56
2024/03/19 12:49:39;;;;;;;9.05;3.05;;;;;;;;;;5075783;28;20019;-54
2024/03/19 12:52:06;;;;;;;6.57;2.47;;;;;;;;;;5075001;28;20031;-58
2024/03/19 12:54:32;;;;;;;7.22;2.70;;;;;;;;;;5074966;28;20023;-57
2024/03/19 12:56:58;;;;;;;8.00;2.65;;;;;;;;;;5072607;28;20345;-56
2024/03/19 12:59:25;;;;;;;6.45;2.28;;;;;;;;;;5074207;28;20360;-58
2024/03/19 13:01:51;;;;;;;7.63;2.35;;;;;;;;;;5074686;28;20028;-58
2024/03/19 13:04:18;;;;;;;5.45;2.00;;;;;;;;;;5074552;28;20025;-57
2024/03/19 13:06:44;;;;;;;5.60;2.30;;;;;;;;;;5075010;28;20021;-59
2024/03/19 13:09:11;;;;;;;8.48;2.45;;;;;;;;;;5074790;28;20017;-58
2024/03/19 13:11:38;;;;;;;5.25;2.08;;;;;;;;;;5074721;28;20032;-58
2024/03/19 13:14:05;;;;;;;7.57;2.60;;;;;;;;;;5074778;28;20013;-58
2024/03/19 13:16:33;;;;;;;5.28;1.73;;;;;;;;;;5057017;28;20017;-55
2024/03/19 13:19:00;;;;;;;6.35;1.83;;;;;;;;;;5074944;28;20140;-58
2024/03/19 13:21:26;;;;;;;4.55;1.67;;;;;;;;;;5074923;28;20445;-57
2024/03/19 13:23:52;;;;;;;3.80;1.50;;;;;;;;;;5074667;28;20021;-57
2024/03/19 13:26:21;;;;;;;5.95;1.98;;;;;;;;;;5074531;28;20024;-54
2024/03/19 13:28:48;;;;;;;5.47;2.10;;;;;;;;;;5074882;28;20031;-56
2024/03/19 13:31:15;;;;;;;7.18;1.90;;;;;;;;;;5074561;28;20023;-54
2024/03/19 13:33:41;;;;;;;6.93;2.13;;;;;;;;;;5074476;28;20033;-55
2024/03/19 13:36:10;;;;;;;5.88;2.05;;;;;;;;;;5074675;28;20025;-54
2024/03/19 13:38:38;;;;;;;5.30;1.73;;;;;;;;;;5074799;28;20028;-56
2024/03/19 13:41:04;;;;;;;5.57;2.00;;;;;;;;;;5074433;28;20035;-58
2024/03/19 13:43:31;;;;;;;6.85;2.03;;;;;;;;;;5074423;28;20032;-53
2024/03/19 13:46:04;;;;;;;5.70;1.80;;;;;;;;;;5074656;28;20086;-58
2024/03/19 13:48:33;;;;;;;7.05;2.33;;;;;;;;;;5074461;28;20017;-57
2024/03/19 13:51:00;;;;;;;6.38;2.00;;;;;;;;;;5074449;28;20236;-56
2024/03/19 13:53:28;;;;;;;6.82;2.20;;;;;;;;;;5074331;28;20016;-56
2024/03/19 13:55:55;;;;;;;8.45;2.10;;;;;;;;;;5073798;28;20017;-55
2024/03/19 13:58:22;;;;;;;7.20;1.73;;;;;;;;;;5073553;28;20036;-56
2024/03/19 14:00:49;;;;;;;6.18;1.80;;;;;;;;;;5074244;28;20017;-55
2024/03/19 14:03:17;;;;;;;4.93;1.63;;;;;;;;;;5074490;28;20024;-54
2024/03/19 14:05:44;;;;;;;6.65;2.05;;;;;;;;;;5074468;28;20318;-55
2024/03/19 14:08:11;;;;;;;7.55;2.47;;;;;;;;;;5074383;28;20035;-56
2024/03/19 14:10:38;;;;;;;5.65;1.80;;;;;;;;;;5074415;28;20013;-54
2024/03/19 14:13:05;;;;;;;6.45;1.88;;;;;;;;;;5074191;28;20369;-55
2024/03/19 14:15:37;;;;;;;6.13;2.20;;;;;;;;;;5076250;28;20509;-54
2024/03/19 14:18:09;;;;;;;4.97;1.75;;;;;;;;;;5078025;28;20027;-55
2024/03/19 14:20:36;;;;;;;7.05;1.88;;;;;;;;;;5077777;28;20020;-53
2024/03/19 14:23:03;;;;;;;4.80;1.65;;;;;;;;;;5077677;28;20093;-54
2024/03/19 14:25:29;;;;;;;6.22;1.80;;;;;;;;;;5077565;28;20028;-55